AFR1640 LFPG-EHAM
Flight info
| Callsign | AFR1640 |
|---|---|
| Flight time | 0h 43m |
| Altitude | 28000 |
| Route | NURMO DCT CMB DCT VEKIN DCT ADUTO N873 FERDI Y18 DENUT |
| Aircraft | A320/M-SDE3FGHIRWY/LB1 |
Departure
| Time | 2026-05-05 14:59 |
|---|---|
| Airport | Charles de Gaulle International Airport (LFPG) |
Arrival
| Time | 2026-05-05 15:42 |
|---|---|
| Airport | Amsterdam Airport Schiphol (EHAM) |
| Time | Latitude | Longitude | Altitude | Speed | Heading |
|---|---|---|---|---|---|
| 2026-05-05 14:24 | 49.00733 | 2.57848 | 360 ft | 0 kts | 167° |
| 2026-05-05 14:45 | 49.00734 | 2.57848 | 354 ft | 1 kts | 167° |
| 2026-05-05 14:45 | 49.00753 | 2.57840 | 362 ft | 2 kts | 167° |
| 2026-05-05 14:45 | 49.00773 | 2.57837 | 361 ft | 3 kts | 201° |
| 2026-05-05 14:46 | 49.00786 | 2.57854 | 361 ft | 3 kts | 265° |
| 2026-05-05 14:46 | 49.00786 | 2.57889 | 360 ft | 3 kts | 269° |
| 2026-05-05 14:46 | 49.00786 | 2.57900 | 361 ft | 0 kts | 265° |
| 2026-05-05 14:49 | 49.00783 | 2.57873 | 360 ft | 4 kts | 264° |
| 2026-05-05 14:49 | 49.00780 | 2.57810 | 362 ft | 11 kts | 265° |
| 2026-05-05 14:49 | 49.00814 | 2.57736 | 356 ft | 8 kts | 345° |
| 2026-05-05 14:50 | 49.00861 | 2.57724 | 354 ft | 7 kts | 336° |
| 2026-05-05 14:50 | 49.00884 | 2.57653 | 357 ft | 10 kts | 270° |
| 2026-05-05 14:50 | 49.00876 | 2.57494 | 360 ft | 21 kts | 265° |
| 2026-05-05 14:50 | 49.00865 | 2.57280 | 362 ft | 19 kts | 265° |
| 2026-05-05 14:51 | 49.00855 | 2.57110 | 358 ft | 13 kts | 265° |
| 2026-05-05 14:51 | 49.00847 | 2.56976 | 354 ft | 12 kts | 265° |
| 2026-05-05 14:51 | 49.00841 | 2.56862 | 354 ft | 14 kts | 265° |
| 2026-05-05 14:51 | 49.00830 | 2.56663 | 354 ft | 23 kts | 266° |
| 2026-05-05 14:52 | 49.00813 | 2.56421 | 360 ft | 23 kts | 262° |
| 2026-05-05 14:52 | 49.00791 | 2.56181 | 361 ft | 22 kts | 263° |
| 2026-05-05 14:52 | 49.00771 | 2.55969 | 356 ft | 18 kts | 262° |
| 2026-05-05 14:52 | 49.00757 | 2.55809 | 354 ft | 13 kts | 262° |
| 2026-05-05 14:53 | 49.00746 | 2.55675 | 356 ft | 14 kts | 262° |
| 2026-05-05 14:53 | 49.00736 | 2.55558 | 363 ft | 8 kts | 263° |
| 2026-05-05 14:53 | 49.00727 | 2.55453 | 354 ft | 15 kts | 262° |
| 2026-05-05 14:53 | 49.00688 | 2.55270 | 358 ft | 17 kts | 233° |
| 2026-05-05 14:54 | 49.00599 | 2.55262 | 359 ft | 11 kts | 162° |
| 2026-05-05 14:54 | 49.00538 | 2.55291 | 361 ft | 11 kts | 164° |
| 2026-05-05 14:54 | 49.00429 | 2.55337 | 362 ft | 19 kts | 164° |
| 2026-05-05 14:54 | 49.00318 | 2.55385 | 354 ft | 15 kts | 164° |
| 2026-05-05 14:55 | 49.00235 | 2.55423 | 362 ft | 12 kts | 163° |
| 2026-05-05 14:55 | 49.00127 | 2.55470 | 360 ft | 16 kts | 164° |
| 2026-05-05 14:55 | 49.00023 | 2.55511 | 359 ft | 15 kts | 164° |
| 2026-05-05 14:55 | 48.99943 | 2.55549 | 361 ft | 9 kts | 158° |
| 2026-05-05 14:56 | 48.99871 | 2.55626 | 358 ft | 19 kts | 130° |
| 2026-05-05 14:56 | 48.99795 | 2.55792 | 357 ft | 17 kts | 155° |
| 2026-05-05 14:56 | 48.99700 | 2.55810 | 354 ft | 11 kts | 174° |
| 2026-05-05 14:56 | 48.99643 | 2.55822 | 356 ft | 6 kts | 172° |
| 2026-05-05 14:57 | 48.99607 | 2.55832 | 357 ft | 4 kts | 161° |
| 2026-05-05 14:57 | 48.99601 | 2.55845 | 358 ft | 0 kts | 123° |
| 2026-05-05 14:57 | 48.99600 | 2.55872 | 359 ft | 5 kts | 84° |
| 2026-05-05 14:57 | 48.99603 | 2.55915 | 356 ft | 8 kts | 84° |
| 2026-05-05 14:58 | 48.99626 | 2.56335 | 363 ft | 73 kts | 85° |
| 2026-05-05 14:58 | 48.99684 | 2.57407 | 351 ft | 128 kts | 85° |
| 2026-05-05 14:58 | 48.99764 | 2.58979 | 379 ft | 167 kts | 82° |
| 2026-05-05 14:58 | 48.99842 | 2.60754 | 978 ft | 169 kts | 83° |
| 2026-05-05 14:59 | 48.99918 | 2.62532 | 1751 ft | 166 kts | 81° |
| 2026-05-05 14:59 | 49.00008 | 2.64280 | 2401 ft | 165 kts | 83° |
| 2026-05-05 14:59 | 49.00096 | 2.66051 | 2924 ft | 175 kts | 84° |
| 2026-05-05 14:59 | 49.00164 | 2.68008 | 3342 ft | 196 kts | 85° |
| 2026-05-05 15:00 | 49.00253 | 2.70206 | 3716 ft | 221 kts | 85° |
| 2026-05-05 15:00 | 49.00340 | 2.71813 | 4007 ft | 238 kts | 83° |
| 2026-05-05 15:00 | 49.00561 | 2.75338 | 4998 ft | 257 kts | 84° |
| 2026-05-05 15:00 | 49.00728 | 2.78049 | 5914 ft | 262 kts | 84° |
| 2026-05-05 15:01 | 49.00890 | 2.80833 | 6776 ft | 266 kts | 84° |
| 2026-05-05 15:01 | 49.01100 | 2.83644 | 7592 ft | 269 kts | 75° |
| 2026-05-05 15:01 | 49.01946 | 2.86183 | 8427 ft | 273 kts | 49° |
| 2026-05-05 15:01 | 49.03469 | 2.87927 | 9273 ft | 280 kts | 25° |
| 2026-05-05 15:02 | 49.05385 | 2.88509 | 10106 ft | 286 kts | 0° |
| 2026-05-05 15:02 | 49.07448 | 2.88257 | 10473 ft | 310 kts | 356° |
| 2026-05-05 15:02 | 49.09662 | 2.87893 | 10889 ft | 327 kts | 355° |
| 2026-05-05 15:02 | 49.11957 | 2.87483 | 11573 ft | 336 kts | 355° |
| 2026-05-05 15:03 | 49.14300 | 2.87061 | 12281 ft | 342 kts | 356° |
| 2026-05-05 15:03 | 49.16676 | 2.86644 | 12937 ft | 346 kts | 356° |
| 2026-05-05 15:03 | 49.19095 | 2.86230 | 13587 ft | 352 kts | 356° |
| 2026-05-05 15:03 | 49.21540 | 2.85823 | 14186 ft | 356 kts | 356° |
| 2026-05-05 15:04 | 49.24022 | 2.85414 | 14758 ft | 360 kts | 355° |
| 2026-05-05 15:04 | 49.26530 | 2.84999 | 15329 ft | 365 kts | 355° |
| 2026-05-05 15:04 | 49.29069 | 2.84575 | 15909 ft | 369 kts | 356° |
| 2026-05-05 15:04 | 49.31630 | 2.84146 | 16475 ft | 373 kts | 356° |
| 2026-05-05 15:05 | 49.36852 | 2.83276 | 17617 ft | 381 kts | 355° |
| 2026-05-05 15:05 | 49.39509 | 2.82826 | 18179 ft | 386 kts | 355° |
| 2026-05-05 15:05 | 49.42193 | 2.82371 | 18755 ft | 390 kts | 355° |
| 2026-05-05 15:06 | 49.44902 | 2.81916 | 19369 ft | 393 kts | 355° |
| 2026-05-05 15:06 | 49.47635 | 2.81460 | 19915 ft | 397 kts | 355° |
| 2026-05-05 15:06 | 49.50392 | 2.81000 | 20430 ft | 399 kts | 355° |
| 2026-05-05 15:06 | 49.53159 | 2.80536 | 20941 ft | 401 kts | 355° |
| 2026-05-05 15:07 | 49.55952 | 2.80065 | 21402 ft | 404 kts | 355° |
| 2026-05-05 15:07 | 49.58761 | 2.79589 | 21872 ft | 407 kts | 354° |
| 2026-05-05 15:07 | 49.61586 | 2.79110 | 22403 ft | 408 kts | 355° |
| 2026-05-05 15:07 | 49.64420 | 2.78627 | 22865 ft | 411 kts | 355° |
| 2026-05-05 15:08 | 49.67276 | 2.78138 | 23319 ft | 414 kts | 355° |
| 2026-05-05 15:08 | 49.70141 | 2.77649 | 23759 ft | 415 kts | 354° |
| 2026-05-05 15:08 | 49.73023 | 2.77158 | 24134 ft | 419 kts | 354° |
| 2026-05-05 15:08 | 49.75948 | 2.76664 | 24491 ft | 424 kts | 354° |
| 2026-05-05 15:09 | 49.78903 | 2.76368 | 24933 ft | 425 kts | 2° |
| 2026-05-05 15:09 | 49.81806 | 2.76829 | 25347 ft | 426 kts | 13° |
| 2026-05-05 15:09 | 49.84652 | 2.78098 | 25734 ft | 427 kts | 23° |
| 2026-05-05 15:09 | 49.87314 | 2.80132 | 26135 ft | 426 kts | 33° |
| 2026-05-05 15:10 | 49.89827 | 2.82597 | 26497 ft | 428 kts | 34° |
| 2026-05-05 15:10 | 49.92350 | 2.85069 | 26868 ft | 429 kts | 34° |
| 2026-05-05 15:10 | 49.94886 | 2.87547 | 27172 ft | 433 kts | 33° |
| 2026-05-05 15:10 | 49.97444 | 2.90048 | 27446 ft | 436 kts | 34° |
| 2026-05-05 15:11 | 50.00015 | 2.92568 | 27746 ft | 439 kts | 34° |
| 2026-05-05 15:11 | 50.02589 | 2.95099 | 27844 ft | 432 kts | 34° |
| 2026-05-05 15:11 | 50.05090 | 2.97565 | 27848 ft | 420 kts | 34° |
| 2026-05-05 15:11 | 50.07547 | 2.99992 | 27848 ft | 416 kts | 34° |
| 2026-05-05 15:12 | 50.09985 | 3.02406 | 27848 ft | 415 kts | 34° |
| 2026-05-05 15:12 | 50.12420 | 3.04820 | 27854 ft | 414 kts | 34° |
| 2026-05-05 15:12 | 50.14853 | 3.07231 | 27854 ft | 414 kts | 34° |
| 2026-05-05 15:12 | 50.17288 | 3.09645 | 27857 ft | 415 kts | 34° |
| 2026-05-05 15:13 | 50.19725 | 3.12064 | 27853 ft | 416 kts | 34° |
| 2026-05-05 15:13 | 50.22175 | 3.14486 | 27863 ft | 416 kts | 32° |
| 2026-05-05 15:13 | 50.24765 | 3.16521 | 27860 ft | 418 kts | 25° |
| 2026-05-05 15:13 | 50.27417 | 3.18379 | 27863 ft | 418 kts | 25° |
| 2026-05-05 15:14 | 50.30068 | 3.20234 | 27867 ft | 418 kts | 25° |
| 2026-05-05 15:14 | 50.32720 | 3.22089 | 27867 ft | 417 kts | 25° |
| 2026-05-05 15:14 | 50.35367 | 3.23943 | 27860 ft | 417 kts | 26° |
| 2026-05-05 15:14 | 50.38014 | 3.25803 | 27868 ft | 416 kts | 26° |
| 2026-05-05 15:15 | 50.40656 | 3.27663 | 27867 ft | 416 kts | 26° |
| 2026-05-05 15:15 | 50.43275 | 3.29587 | 27872 ft | 416 kts | 27° |
| 2026-05-05 15:15 | 50.45876 | 3.31601 | 27869 ft | 416 kts | 28° |
| 2026-05-05 15:15 | 50.48452 | 3.33655 | 27871 ft | 416 kts | 29° |
| 2026-05-05 15:16 | 50.51024 | 3.35727 | 27873 ft | 416 kts | 29° |
| 2026-05-05 15:16 | 50.53615 | 3.37741 | 27872 ft | 416 kts | 27° |
| 2026-05-05 15:16 | 50.56254 | 3.39635 | 27875 ft | 416 kts | 25° |
| 2026-05-05 15:16 | 50.58913 | 3.41439 | 27874 ft | 416 kts | 24° |
| 2026-05-05 15:17 | 50.61587 | 3.43209 | 27861 ft | 417 kts | 24° |
| 2026-05-05 15:17 | 50.64262 | 3.44978 | 27852 ft | 417 kts | 24° |
| 2026-05-05 15:17 | 50.66935 | 3.46771 | 27854 ft | 418 kts | 25° |
| 2026-05-05 15:17 | 50.69604 | 3.48591 | 27856 ft | 418 kts | 25° |
| 2026-05-05 15:18 | 50.72270 | 3.50435 | 27856 ft | 418 kts | 25° |
| 2026-05-05 15:18 | 50.74933 | 3.52293 | 27860 ft | 419 kts | 25° |
| 2026-05-05 15:18 | 50.77602 | 3.54162 | 27864 ft | 419 kts | 25° |
| 2026-05-05 15:18 | 50.80263 | 3.56024 | 27866 ft | 419 kts | 25° |
| 2026-05-05 15:19 | 50.82932 | 3.57890 | 27866 ft | 419 kts | 25° |
| 2026-05-05 15:19 | 50.85604 | 3.59750 | 27861 ft | 420 kts | 25° |
| 2026-05-05 15:19 | 50.88278 | 3.61608 | 27756 ft | 418 kts | 24° |
| 2026-05-05 15:19 | 50.91003 | 3.63069 | 27489 ft | 411 kts | 14° |
| 2026-05-05 15:20 | 50.93805 | 3.63822 | 27226 ft | 407 kts | 5° |
| 2026-05-05 15:20 | 50.95677 | 3.63970 | 27052 ft | 406 kts | 2° |
| 2026-05-05 15:20 | 50.99438 | 3.64190 | 26705 ft | 403 kts | 2° |
| 2026-05-05 15:20 | 51.01291 | 3.64304 | 26537 ft | 402 kts | 2° |
| 2026-05-05 15:21 | 51.04085 | 3.64487 | 26282 ft | 400 kts | 2° |
| 2026-05-05 15:21 | 51.06857 | 3.64676 | 26029 ft | 398 kts | 2° |
| 2026-05-05 15:21 | 51.09628 | 3.64867 | 25777 ft | 397 kts | 2° |
| 2026-05-05 15:21 | 51.12381 | 3.65053 | 25529 ft | 395 kts | 2° |
| 2026-05-05 15:22 | 51.15118 | 3.65232 | 25284 ft | 392 kts | 2° |
| 2026-05-05 15:22 | 51.17826 | 3.65402 | 24909 ft | 388 kts | 2° |
| 2026-05-05 15:22 | 51.20518 | 3.65566 | 24441 ft | 386 kts | 2° |
| 2026-05-05 15:22 | 51.23196 | 3.65731 | 23971 ft | 385 kts | 2° |
| 2026-05-05 15:23 | 51.25869 | 3.65822 | 23521 ft | 383 kts | 0° |
| 2026-05-05 15:23 | 51.28528 | 3.65784 | 23027 ft | 381 kts | 358° |
| 2026-05-05 15:23 | 51.31168 | 3.65670 | 22597 ft | 378 kts | 358° |
| 2026-05-05 15:23 | 51.33792 | 3.65529 | 22161 ft | 377 kts | 358° |
| 2026-05-05 15:24 | 51.36410 | 3.65395 | 21725 ft | 374 kts | 358° |
| 2026-05-05 15:24 | 51.38999 | 3.65287 | 21294 ft | 371 kts | 359° |
| 2026-05-05 15:24 | 51.41574 | 3.65203 | 20865 ft | 369 kts | 359° |
| 2026-05-05 15:24 | 51.44133 | 3.65128 | 20445 ft | 367 kts | 359° |
| 2026-05-05 15:25 | 51.46675 | 3.65052 | 20023 ft | 364 kts | 359° |
| 2026-05-05 15:25 | 51.49204 | 3.64976 | 19615 ft | 362 kts | 359° |
| 2026-05-05 15:25 | 51.51721 | 3.64900 | 19196 ft | 360 kts | 360° |
| 2026-05-05 15:25 | 51.54228 | 3.64824 | 18782 ft | 358 kts | 360° |
| 2026-05-05 15:26 | 51.56715 | 3.64750 | 18375 ft | 357 kts | 360° |
| 2026-05-05 15:26 | 51.59193 | 3.64678 | 17931 ft | 355 kts | 359° |
| 2026-05-05 15:26 | 51.61652 | 3.64604 | 17512 ft | 352 kts | 360° |
| 2026-05-05 15:26 | 51.64091 | 3.64532 | 17110 ft | 349 kts | 0° |
| 2026-05-05 15:27 | 51.66511 | 3.64459 | 16715 ft | 346 kts | 360° |
| 2026-05-05 15:27 | 51.68899 | 3.64636 | 16313 ft | 342 kts | 11° |
| 2026-05-05 15:27 | 51.71115 | 3.65778 | 15927 ft | 337 kts | 27° |
| 2026-05-05 15:27 | 51.73061 | 3.67840 | 15541 ft | 333 kts | 43° |
| 2026-05-05 15:28 | 51.74576 | 3.70629 | 15151 ft | 330 kts | 57° |
| 2026-05-05 15:28 | 51.75810 | 3.73735 | 14778 ft | 328 kts | 58° |
| 2026-05-05 15:28 | 51.77031 | 3.76830 | 14397 ft | 326 kts | 58° |
| 2026-05-05 15:28 | 51.78245 | 3.79918 | 14019 ft | 325 kts | 58° |
| 2026-05-05 15:29 | 51.79455 | 3.82998 | 13633 ft | 324 kts | 58° |
| 2026-05-05 15:29 | 51.80676 | 3.86108 | 13228 ft | 322 kts | 58° |
| 2026-05-05 15:29 | 51.81856 | 3.89114 | 12849 ft | 319 kts | 57° |
| 2026-05-05 15:29 | 51.83040 | 3.92135 | 12483 ft | 317 kts | 58° |
| 2026-05-05 15:30 | 51.84212 | 3.95131 | 12122 ft | 314 kts | 58° |
| 2026-05-05 15:30 | 51.85377 | 3.98117 | 11760 ft | 312 kts | 58° |
| 2026-05-05 15:30 | 51.86529 | 4.01067 | 11399 ft | 309 kts | 58° |
| 2026-05-05 15:30 | 51.87674 | 4.04000 | 11043 ft | 307 kts | 58° |
| 2026-05-05 15:31 | 51.88805 | 4.06899 | 10825 ft | 300 kts | 58° |
| 2026-05-05 15:31 | 51.89905 | 4.09718 | 10509 ft | 292 kts | 58° |
| 2026-05-05 15:31 | 51.90982 | 4.12484 | 10028 ft | 288 kts | 58° |
| 2026-05-05 15:31 | 51.92032 | 4.15246 | 9659 ft | 288 kts | 59° |
| 2026-05-05 15:32 | 51.93045 | 4.18031 | 9282 ft | 286 kts | 59° |
| 2026-05-05 15:32 | 51.94052 | 4.20799 | 8894 ft | 285 kts | 59° |
| 2026-05-05 15:32 | 51.95054 | 4.23556 | 8510 ft | 283 kts | 59° |
| 2026-05-05 15:32 | 51.96061 | 4.26303 | 8133 ft | 283 kts | 57° |
| 2026-05-05 15:33 | 51.97400 | 4.28599 | 7750 ft | 280 kts | 34° |
| 2026-05-05 15:33 | 51.99042 | 4.30288 | 7376 ft | 279 kts | 32° |
| 2026-05-05 15:33 | 52.00689 | 4.31954 | 6867 ft | 277 kts | 32° |
| 2026-05-05 15:33 | 52.02316 | 4.33599 | 6382 ft | 274 kts | 32° |
| 2026-05-05 15:34 | 52.03925 | 4.35226 | 5851 ft | 271 kts | 32° |
| 2026-05-05 15:34 | 52.05509 | 4.36829 | 5338 ft | 265 kts | 32° |
| 2026-05-05 15:34 | 52.07024 | 4.38365 | 4949 ft | 254 kts | 32° |
| 2026-05-05 15:34 | 52.08487 | 4.39850 | 4559 ft | 243 kts | 32° |
| 2026-05-05 15:35 | 52.09889 | 4.41277 | 4176 ft | 232 kts | 33° |
| 2026-05-05 15:35 | 52.11234 | 4.42647 | 3786 ft | 223 kts | 32° |
| 2026-05-05 15:35 | 52.12539 | 4.43977 | 3407 ft | 223 kts | 32° |
| 2026-05-05 15:35 | 52.13838 | 4.45300 | 3134 ft | 215 kts | 32° |
| 2026-05-05 15:36 | 52.15081 | 4.46570 | 2868 ft | 208 kts | 33° |
| 2026-05-05 15:36 | 52.16288 | 4.47806 | 2656 ft | 200 kts | 33° |
| 2026-05-05 15:36 | 52.17435 | 4.48975 | 2505 ft | 188 kts | 32° |
| 2026-05-05 15:36 | 52.18509 | 4.50070 | 2380 ft | 176 kts | 32° |
| 2026-05-05 15:37 | 52.19533 | 4.51115 | 2244 ft | 173 kts | 32° |
| 2026-05-05 15:37 | 52.20475 | 4.52264 | 2158 ft | 168 kts | 49° |
| 2026-05-05 15:37 | 52.21131 | 4.53722 | 2085 ft | 155 kts | 54° |
| 2026-05-05 15:37 | 52.21710 | 4.55140 | 2011 ft | 145 kts | 55° |
| 2026-05-05 15:38 | 52.22249 | 4.56499 | 1997 ft | 139 kts | 55° |
| 2026-05-05 15:38 | 52.22762 | 4.57810 | 1993 ft | 136 kts | 55° |
| 2026-05-05 15:38 | 52.23262 | 4.59093 | 1990 ft | 135 kts | 55° |
| 2026-05-05 15:38 | 52.23766 | 4.60392 | 1878 ft | 135 kts | 54° |
| 2026-05-05 15:39 | 52.24266 | 4.61683 | 1732 ft | 134 kts | 55° |
| 2026-05-05 15:39 | 52.24766 | 4.62976 | 1555 ft | 134 kts | 55° |
| 2026-05-05 15:39 | 52.25254 | 4.64248 | 1388 ft | 134 kts | 56° |
| 2026-05-05 15:39 | 52.25745 | 4.65540 | 1207 ft | 133 kts | 55° |
| 2026-05-05 15:40 | 52.26237 | 4.66823 | 999 ft | 132 kts | 53° |
| 2026-05-05 15:40 | 52.26735 | 4.68089 | 836 ft | 132 kts | 54° |
| 2026-05-05 15:40 | 52.27230 | 4.69368 | 666 ft | 133 kts | 53° |
| 2026-05-05 15:40 | 52.27728 | 4.70634 | 439 ft | 135 kts | 54° |
| 2026-05-05 15:41 | 52.28210 | 4.71933 | 303 ft | 133 kts | 53° |
| 2026-05-05 15:41 | 52.28716 | 4.73197 | 139 ft | 132 kts | 52° |
| 2026-05-05 15:41 | 52.29193 | 4.74471 | 2 ft | 127 kts | 57° |
| 2026-05-05 15:41 | 52.29584 | 4.75474 | -2 ft | 80 kts | 58° |
| 2026-05-05 15:42 | 52.29747 | 4.75907 | -3 ft | 34 kts | 70° |
| 2026-05-05 15:42 | 52.29884 | 4.76251 | -4 ft | 36 kts | 57° |
| 2026-05-05 15:42 | 52.30033 | 4.76543 | -2 ft | 32 kts | 29° |